Time;durP1;ratioP1;P1;durP2;ratioP2;P2;SDS_P1;SDS_P2;PMS_P1;PMS_P2;Temp;Humidity;BMP_temperature;BMP_pressure;BME280_temperature;BME280_humidity;BME280_pressure;Samples;Min_cycle;Max_cycle;Signal;HPM_P1;HPM_P2
2023/05/03 00:02:01;;;;;;;;;;;;;;;;;;5091879;28;20011;-69
2023/05/03 00:04:27;;;;;;;;;;;;;;;;;;5090796;28;19944;-67
2023/05/03 00:12:35;;;;;;;;;;;;;;;;;;5091103;27;19920;-68
2023/05/03 00:17:15;;;;;;;;;;;;;;;;;;5092230;27;19917;-67
2023/05/03 00:19:41;;;;;;;;;;;;;;;;;;5090936;28;20425;-67
2023/05/03 00:25:14;;;;;;;;;;;;;;;;;;5091229;27;19919;-66
2023/05/03 00:29:48;;;;;;;;;;;;;;;;;;5153362;27;19922;-68
2023/05/03 00:32:14;;;;;;;;;;;;;;;;;;5152484;27;19955;-67
2023/05/03 00:34:40;;;;;;;;;;;;;;;;;;5152861;27;20294;-68
2023/05/03 00:38:39;;;;;;;;;;;;;;;;;;5092212;27;19916;-66
2023/05/03 00:41:06;;;;;;;;;;;;;;;;;;5089630;28;19999;-66
2023/05/03 00:43:32;;;;;;;;;;;;;;;;;;5089982;28;19908;-66
2023/05/03 00:45:58;;;;;;;;;;;;;;;;;;5091181;28;19914;-68
2023/05/03 00:49:06;;;;;;;;;;;;;;;;;;5091653;27;20291;-67
2023/05/03 00:51:32;;;;;;;;;;;;;;;;;;5091310;28;19999;-68
2023/05/03 00:55:31;;;;;;;;;;;;;;;;;;5091523;27;19913;-66
2023/05/03 01:00:03;;;;;;;;;;;;;;;;;;5091642;27;19916;-66
2023/05/03 01:02:29;;;;;;;;;;;;;;;;;;5091333;28;20003;-66
2023/05/03 01:05:56;;;;;;;;;;;;;;;;;;5092142;28;19917;-66
2023/05/03 01:08:21;;;;;;;;;;;;;;;;;;5091125;28;19948;-67
2023/05/03 01:10:47;;;;;;;;;;;;;;;;;;5091330;28;19932;-67
2023/05/03 01:13:13;;;;;;;;;;;;;;;;;;5091194;28;19912;-67
2023/05/03 01:15:39;;;;;;;;;;;;;;;;;;5090724;28;20323;-67
2023/05/03 01:18:07;;;;;;;;;;;;;;;;;;5091225;28;19916;-67
2023/05/03 01:20:34;;;;;;;;;;;;;;;;;;5091183;28;20322;-67
2023/05/03 01:23:00;;;;;;;;;;;;;;;;;;5090704;28;19908;-67
2023/05/03 01:25:26;;;;;;;;;;;;;;;;;;5090932;28;19916;-67
2023/05/03 01:27:52;;;;;;;;;;;;;;;;;;5091070;28;19915;-67
2023/05/03 01:30:18;;;;;;;;;;;;;;;;;;5090586;28;19908;-67
2023/05/03 01:32:44;;;;;;;;;;;;;;;;;;5091065;28;19954;-67
2023/05/03 01:35:10;;;;;;;;;;;;;;;;;;5090505;28;19908;-67
2023/05/03 01:37:36;;;;;;;;;;;;;;;;;;5090724;28;19915;-68
2023/05/03 01:40:03;;;;;;;;;;;;;;;;;;5090810;28;20426;-68
2023/05/03 01:42:29;;;;;;;;;;;;;;;;;;5090538;28;20705;-68
2023/05/03 01:44:55;;;;;;;;;;;;;;;;;;5090643;28;19974;-68
2023/05/03 01:47:21;;;;;;;;;;;;;;;;;;5090643;28;19931;-68
2023/05/03 01:49:47;;;;;;;;;;;;;;;;;;5090337;28;20359;-68
2023/05/03 01:52:13;;;;;;;;;;;;;;;;;;5090860;28;19947;-67
2023/05/03 01:54:39;;;;;;;;;;;;;;;;;;5090927;28;19916;-68
2023/05/03 01:57:05;;;;;;;;;;;;;;;;;;5090086;28;20295;-68
2023/05/03 01:59:31;;;;;;;;;;;;;;;;;;5089202;28;19957;-68
2023/05/03 02:01:57;;;;;;;;;;;;;;;;;;5090284;28;19991;-68
2023/05/03 02:04:23;;;;;;;;;;;;;;;;;;5097714;28;19920;-68
2023/05/03 02:06:49;;;;;;;;;;;;;;;;;;5110565;28;19908;-68
2023/05/03 02:09:15;;;;;;;;;;;;;;;;;;5111061;28;19919;-68
2023/05/03 02:11:42;;;;;;;;;;;;;;;;;;5110143;28;19930;-68
2023/05/03 02:14:08;;;;;;;;;;;;;;;;;;5110466;28;20319;-68
2023/05/03 02:16:34;;;;;;;;;;;;;;;;;;5100834;28;19908;-68
2023/05/03 02:19:00;;;;;;;;;;;;;;;;;;5096507;28;19952;-68
2023/05/03 02:21:26;;;;;;;;;;;;;;;;;;5096761;28;20403;-68
2023/05/03 02:23:53;;;;;;;;;;;;;;;;;;5096961;28;19912;-68
2023/05/03 02:26:19;;;;;;;;;;;;;;;;;;5096323;28;19912;-68
2023/05/03 02:28:44;;;;;;;;;;;;;;;;;;5096565;28;19908;-68
2023/05/03 02:31:12;;;;;;;;;;;;;;;;;;5096535;28;19908;-68
2023/05/03 02:33:38;;;;;;;;;;;;;;;;;;5096184;28;20383;-68
2023/05/03 02:36:04;;;;;;;;;;;;;;;;;;5096577;28;20002;-68
2023/05/03 02:38:30;;;;;;;;;;;;;;;;;;5095932;28;20426;-68
2023/05/03 02:40:56;;;;;;;;;;;;;;;;;;5096448;28;19919;-68
2023/05/03 02:43:22;;;;;;;;;;;;;;;;;;5096254;28;20015;-68
2023/05/03 02:45:48;;;;;;;;;;;;;;;;;;5095717;28;20014;-68
2023/05/03 02:48:15;;;;;;;;;;;;;;;;;;5096616;28;19908;-68
2023/05/03 02:50:41;;;;;;;;;;;;;;;;;;5096263;28;19909;-68
2023/05/03 02:53:07;;;;;;;;;;;;;;;;;;5095800;28;20383;-68
2023/05/03 02:55:33;;;;;;;;;;;;;;;;;;5096095;28;19908;-68
2023/05/03 02:57:59;;;;;;;;;;;;;;;;;;5096021;28;19915;-68
2023/05/03 03:00:25;;;;;;;;;;;;;;;;;;5095637;28;19919;-68
2023/05/03 03:02:51;;;;;;;;;;;;;;;;;;5096226;28;20346;-68
2023/05/03 03:05:17;;;;;;;;;;;;;;;;;;5095637;28;19920;-68
2023/05/03 03:07:43;;;;;;;;;;;;;;;;;;5095559;28;20004;-68
2023/05/03 03:10:09;;;;;;;;;;;;;;;;;;5095786;28;19961;-68
2023/05/03 03:12:35;;;;;;;;;;;;;;;;;;5095696;28;19931;-68
2023/05/03 03:15:02;;;;;;;;;;;;;;;;;;5095454;28;19951;-68
2023/05/03 03:17:28;;;;;;;;;;;;;;;;;;5095719;28;19954;-68
2023/05/03 03:19:54;;;;;;;;;;;;;;;;;;5095750;28;19912;-68
2023/05/03 03:22:20;;;;;;;;;;;;;;;;;;5095192;28;19908;-68
2023/05/03 03:24:46;;;;;;;;;;;;;;;;;;5095491;28;19974;-68
2023/05/03 03:27:12;;;;;;;;;;;;;;;;;;5094700;28;19908;-68
2023/05/03 03:29:39;;;;;;;;;;;;;;;;;;5094780;28;19909;-68
2023/05/03 03:32:05;;;;;;;;;;;;;;;;;;5095398;28;19915;-68
2023/05/03 03:34:31;;;;;;;;;;;;;;;;;;5095414;28;19916;-68
2023/05/03 03:36:57;;;;;;;;;;;;;;;;;;5094988;28;20012;-68
2023/05/03 03:39:23;;;;;;;;;;;;;;;;;;5095208;28;19944;-68
2023/05/03 03:41:48;;;;;;;;;;;;;;;;;;5094793;28;19915;-68
2023/05/03 03:44:14;;;;;;;;;;;;;;;;;;5095117;28;19916;-68
2023/05/03 03:46:40;;;;;;;;;;;;;;;;;;5077031;28;19961;-68
2023/05/03 03:49:07;;;;;;;;;;;;;;;;;;5094916;28;19995;-68
2023/05/03 03:51:32;;;;;;;;;;;;;;;;;;5094990;28;19912;-68
2023/05/03 03:53:59;;;;;;;;;;;;;;;;;;5095275;28;19915;-68
2023/05/03 03:56:25;;;;;;;;;;;;;;;;;;5094470;28;19960;-68
2023/05/03 03:58:51;;;;;;;;;;;;;;;;;;5094857;28;19908;-68
2023/05/03 04:01:17;;;;;;;;;;;;;;;;;;5094971;28;19908;-68
2023/05/03 04:03:42;;;;;;;;;;;;;;;;;;5094347;28;19912;-67
2023/05/03 04:06:09;;;;;;;;;;;;;;;;;;5094786;28;19908;-68
2023/05/03 04:08:34;;;;;;;;;;;;;;;;;;5076521;28;19959;-69
2023/05/03 04:11:00;;;;;;;;;;;;;;;;;;5094178;28;19908;-66
2023/05/03 04:13:26;;;;;;;;;;;;;;;;;;5094559;28;19908;-68
2023/05/03 04:15:52;;;;;;;;;;;;;;;;;;5094607;28;19908;-68
2023/05/03 04:18:18;;;;;;;;;;;;;;;;;;5075920;28;19908;-68
2023/05/03 04:20:44;;;;;;;;;;;;;;;;;;5094839;28;19908;-68
2023/05/03 04:23:10;;;;;;;;;;;;;;;;;;5094393;28;20330;-67
2023/05/03 04:25:37;;;;;;;;;;;;;;;;;;5093955;28;19923;-68
2023/05/03 04:28:04;;;;;;;;;;;;;;;;;;5092476;28;19908;-68
2023/05/03 04:30:30;;;;;;;;;;;;;;;;;;5093384;28;19995;-68
2023/05/03 04:32:57;;;;;;;;;;;;;;;;;;5093903;28;19995;-68
2023/05/03 04:35:23;;;;;;;;;;;;;;;;;;5094270;28;19915;-68
2023/05/03 04:37:49;;;;;;;;;;;;;;;;;;5092778;28;19908;-68
2023/05/03 04:40:16;;;;;;;;;;;;;;;;;;5093610;28;20380;-68
2023/05/03 04:42:42;;;;;;;;;;;;;;;;;;5094643;28;19908;-68
2023/05/03 04:45:08;;;;;;;;;;;;;;;;;;5074467;28;19916;-67
2023/05/03 04:47:34;;;;;;;;;;;;;;;;;;5093549;28;19935;-68
2023/05/03 04:50:00;;;;;;;;;;;;;;;;;;5093770;28;20376;-68
2023/05/03 04:52:26;;;;;;;;;;;;;;;;;;5093278;28;20265;-67
2023/05/03 04:54:53;;;;;;;;;;;;;;;;;;5093711;28;19961;-67
2023/05/03 04:57:19;;;;;;;;;;;;;;;;;;5093683;28;19928;-67
2023/05/03 04:59:45;;;;;;;;;;;;;;;;;;5093575;28;19908;-67
2023/05/03 05:02:11;;;;;;;;;;;;;;;;;;5093895;28;19908;-67
2023/05/03 05:04:37;;;;;;;;;;;;;;;;;;5093625;28;20011;-67
2023/05/03 05:07:02;;;;;;;;;;;;;;;;;;5093574;28;19908;-67
2023/05/03 05:09:30;;;;;;;;;;;;;;;;;;5093816;28;19915;-69
2023/05/03 05:11:55;;;;;;;;;;;;;;;;;;5093902;28;20335;-67
2023/05/03 05:14:21;;;;;;;;;;;;;;;;;;5093512;28;19947;-68
2023/05/03 05:16:47;;;;;;;;;;;;;;;;;;5093406;28;19908;-68
2023/05/03 05:19:13;;;;;;;;;;;;;;;;;;5093633;28;19908;-66
2023/05/03 05:21:40;;;;;;;;;;;;;;;;;;5091988;28;19989;-67
2023/05/03 05:24:06;;;;;;;;;;;;;;;;;;5090967;28;19924;-69
2023/05/03 05:26:32;;;;;;;;;;;;;;;;;;5091593;28;19908;-67
2023/05/03 05:28:58;;;;;;;;;;;;;;;;;;5090151;28;19908;-68
2023/05/03 05:31:24;;;;;;;;;;;;;;;;;;5087423;28;19955;-67
2023/05/03 05:33:50;;;;;;;;;;;;;;;;;;5092003;28;19969;-67
2023/05/03 05:36:16;;;;;;;;;;;;;;;;;;5091379;28;20610;-67
2023/05/03 05:38:42;;;;;;;;;;;;;;;;;;5089705;28;19923;-67
2023/05/03 05:41:08;;;;;;;;;;;;;;;;;;5090303;28;20271;-69
2023/05/03 05:43:35;;;;;;;;;;;;;;;;;;5087308;28;19916;-65
2023/05/03 05:46:01;;;;;;;;;;;;;;;;;;5070813;28;19913;-67
2023/05/03 05:48:26;;;;;;;;;;;;;;;;;;5087475;28;19935;-65
2023/05/03 05:50:53;;;;;;;;;;;;;;;;;;5091002;28;19912;-65
2023/05/03 05:53:19;;;;;;;;;;;;;;;;;;5094866;28;19947;-65
2023/05/03 05:55:44;;;;;;;;;;;;;;;;;;5074811;28;19919;-65
2023/05/03 05:58:11;;;;;;;;;;;;;;;;;;5088893;28;19976;-66
2023/05/03 06:00:37;;;;;;;;;;;;;;;;;;5088151;28;20269;-66
2023/05/03 06:03:03;;;;;;;;;;;;;;;;;;5093942;28;19920;-65
2023/05/03 06:05:29;;;;;;;;;;;;;;;;;;5087051;28;19920;-65
2023/05/03 06:07:55;;;;;;;;;;;;;;;;;;5084808;28;19942;-64
2023/05/03 06:10:21;;;;;;;;;;;;;;;;;;5092284;28;19912;-65
2023/05/03 06:14:08;;;;;;;;;;;;;;;;;;5105834;27;21528;-64
2023/05/03 06:16:34;;;;;;;;;;;;;;;;;;5106986;28;20295;-66
2023/05/03 06:19:00;;;;;;;;;;;;;;;;;;5107567;28;19959;-67
2023/05/03 06:21:27;;;;;;;;;;;;;;;;;;5109063;28;19943;-64
2023/05/03 06:23:53;;;;;;;;;;;;;;;;;;5107809;28;19915;-64
2023/05/03 06:28:12;;;;;;;;;;;;;;;;;;5089385;27;19931;-64
2023/05/03 06:30:38;;;;;;;;;;;;;;;;;;5088354;28;19940;-64
2023/05/03 06:33:04;;;;;;;;;;;;;;;;;;5088028;28;19966;-64
2023/05/03 06:43:29;;;;;;;;;;;;;;;;;;5098416;27;19916;-64
2023/05/03 06:47:55;;;;;;;;;;;;;;;;;;5083761;27;20911;-66
2023/05/03 06:51:58;;;;;;;;;;;;;;;;;;5072993;27;19927;-64
2023/05/03 06:54:24;;;;;;;;;;;;;;;;;;5080915;28;19916;-64
2023/05/03 06:56:50;;;;;;;;;;;;;;;;;;5086040;28;19969;-64
2023/05/03 06:59:16;;;;;;;;;;;;;;;;;;5082939;28;19912;-64
2023/05/03 07:01:42;;;;;;;;;;;;;;;;;;5085943;28;19917;-64
2023/05/03 07:04:08;;;;;;;;;;;;;;;;;;5081929;28;19951;-65
2023/05/03 07:06:34;;;;;;;;;;;;;;;;;;5082719;28;19909;-65
2023/05/03 07:09:00;;;;;;;;;;;;;;;;;;5085890;28;19916;-65
2023/05/03 07:11:26;;;;;;;;;;;;;;;;;;5086225;28;19931;-65
2023/05/03 07:13:52;;;;;;;;;;;;;;;;;;5084478;28;19947;-65
2023/05/03 07:16:18;;;;;;;;;;;;;;;;;;5086694;28;19916;-65
2023/05/03 07:20:03;;;;;;;;;;;;;;;;;;5086987;27;20410;-65
2023/05/03 07:25:05;;;;;;;;;;;;;;;;;;5086376;27;19917;-64
2023/05/03 07:27:31;;;;;;;;;;;;;;;;;;5082571;28;19920;-63
2023/05/03 07:29:57;;;;;;;;;;;;;;;;;;5087128;28;19969;-63
2023/05/03 07:32:23;;;;;;;;;;;;;;;;;;5081413;28;19912;-63
2023/05/03 07:37:43;;;;;;;;;;;;;;;;;;5067946;28;19921;-64
2023/05/03 07:40:10;;;;;;;;;;;;;;;;;;5066938;28;20027;-64
2023/05/03 07:46:22;;;;;;;;;;;;;;;;;;5060103;27;2396338;-66
2023/05/03 07:48:48;;;;;;;;;;;;;;;;;;5135496;27;20011;-62
2023/05/03 07:52:23;;;;;;;;;;;;;;;;;;5075388;28;19925;-66
2023/05/03 07:54:49;;;;;;;;;;;;;;;;;;5082835;28;19913;-64
2023/05/03 07:57:15;;;;;;;;;;;;;;;;;;5080649;28;19908;-64
2023/05/03 07:59:41;;;;;;;;;;;;;;;;;;5079293;28;19913;-64
2023/05/03 08:02:07;;;;;;;;;;;;;;;;;;5079079;28;20663;-64
2023/05/03 08:05:50;;;;;;;;;;;;;;;;;;5055742;27;2343023;-63
2023/05/03 08:08:16;;;;;;;;;;;;;;;;;;5144194;27;19911;-63
2023/05/03 08:10:42;;;;;;;;;;;;;;;;;;5111334;28;19922;-64
2023/05/03 08:13:08;;;;;;;;;;;;;;;;;;5123136;28;20411;-64
2023/05/03 08:15:34;;;;;;;;;;;;;;;;;;5112586;28;20395;-64
2023/05/03 08:20:17;;;;;;;;;;;;;;;;;;5060746;28;20371;-63
2023/05/03 08:25:00;;;;;;;;;;;;;;;;;;5096843;27;19912;-64
2023/05/03 08:28:29;;;;;;;;;;;;;;;;;;5048206;27;2289966;-64
2023/05/03 08:37:05;;;;;;;;;;;;;;;;;;5070389;27;2174493;-65
2023/05/03 08:39:32;;;;;;;;;;;;;;;;;;5133954;27;19919;-65
2023/05/03 08:41:59;;;;;;;;;;;;;;;;;;5127076;28;19998;-64
2023/05/03 08:44:25;;;;;;;;;;;;;;;;;;5126313;28;20451;-65
2023/05/03 08:46:51;;;;;;;;;;;;;;;;;;5127157;28;20006;-65
2023/05/03 08:49:17;;;;;;;;;;;;;;;;;;5117312;28;19916;-64
2023/05/03 08:51:45;;;;;;;;;;;;;;;;;;5126873;28;19998;-64
2023/05/03 08:54:11;;;;;;;;;;;;;;;;;;5120568;28;19912;-66
2023/05/03 08:58:03;;;;;;;;;;;;;;;;;;5134461;27;19924;-65
2023/05/03 09:00:29;;;;;;;;;;;;;;;;;;5128487;28;19919;-67
2023/05/03 09:05:00;;;;;;;;;;;;;;;;;;5148592;27;19918;-67
2023/05/03 09:07:25;;;;;;;;;;;;;;;;;;5148337;27;20379;-66
2023/05/03 09:09:53;;;;;;;;;;;;;;;;;;5149088;27;19930;-67
2023/05/03 09:16:17;;;;;;;;;;;;;;;;;;5084195;27;20013;-67
2023/05/03 09:19:24;;;;;;;;;;;;;;;;;;5147656;27;19911;-67
2023/05/03 09:22:10;;;;;;;;;;;;;;;;;;5087337;27;19918;-67
2023/05/03 09:25:45;;;;;;;;;;;;;;;;;;5084212;28;19916;-67
2023/05/03 09:28:11;;;;;;;;;;;;;;;;;;5083266;28;20467;-67
2023/05/03 09:36:05;;;;;;;;;;;;;;;;;;5147351;27;19911;-67
2023/05/03 09:43:25;;;;;;;;;;;;;;;;;;5088883;28;19919;-68
2023/05/03 09:45:51;;;;;;;;;;;;;;;;;;5089466;28;20090;-67
2023/05/03 09:48:21;;;;;;;;;;;;;;;;;;5087439;28;19908;-67
2023/05/03 09:50:47;;;;;;;;;;;;;;;;;;5088181;28;19936;-67
2023/05/03 09:53:14;;;;;;;;;;;;;;;;;;5090063;28;19954;-67
2023/05/03 09:55:40;;;;;;;;;;;;;;;;;;5089306;28;20349;-68
2023/05/03 09:58:18;;;;;;;;;;;;;;;;;;5089188;27;19916;-67
2023/05/03 10:01:24;;;;;;;;;;;;;;;;;;5090429;27;20301;-67
2023/05/03 10:08:08;;;;;;;;;;;;;;;;;;5171300;27;20014;-66
2023/05/03 10:12:26;;;;;;;;;;;;;;;;;;5089220;27;19912;-67
2023/05/03 10:18:03;;;;;;;;;;;;;;;;;;5088991;27;19923;-67
2023/05/03 10:25:28;;;;;;;;;;;;;;;;;;5090897;28;20015;-67
2023/05/03 10:29:50;;;;;;;;;;;;;;;;;;5090187;27;20023;-68
2023/05/03 10:34:00;;;;;;;;;;;;;;;;;;5090068;27;20435;-68
2023/05/03 10:36:25;;;;;;;;;;;;;;;;;;5089410;28;19936;-68
2023/05/03 10:38:51;;;;;;;;;;;;;;;;;;5081962;28;20316;-67
2023/05/03 10:41:17;;;;;;;;;;;;;;;;;;5089032;28;19999;-68
2023/05/03 10:43:43;;;;;;;;;;;;;;;;;;5088562;28;20292;-68
2023/05/03 10:46:56;;;;;;;;;;;;;;;;;;5089658;27;19916;-68
2023/05/03 10:49:22;;;;;;;;;;;;;;;;;;5090380;28;20362;-68
2023/05/03 10:52:40;;;;;;;;;;;;;;;;;;5090412;28;19917;-69
2023/05/03 10:55:06;;;;;;;;;;;;;;;;;;5090810;28;19966;-68
2023/05/03 10:59:19;;;;;;;;;;;;;;;;;;5069880;28;19923;-68
2023/05/03 11:04:02;;;;;;;;;;;;;;;;;;5109426;27;19919;-68
2023/05/03 11:06:28;;;;;;;;;;;;;;;;;;5109155;28;19916;-68
2023/05/03 11:11:57;;;;;;;;;;;;;;;;;;5088766;27;19912;-68
2023/05/03 11:14:23;;;;;;;;;;;;;;;;;;5090053;28;19934;-68
2023/05/03 11:16:50;;;;;;;;;;;;;;;;;;5091521;28;19908;-68
2023/05/03 11:19:16;;;;;;;;;;;;;;;;;;5090831;28;19939;-68
2023/05/03 11:21:42;;;;;;;;;;;;;;;;;;5089794;28;20309;-68
2023/05/03 11:24:08;;;;;;;;;;;;;;;;;;5091124;28;19991;-68
2023/05/03 11:26:34;;;;;;;;;;;;;;;;;;5090663;28;20392;-68
2023/05/03 11:29:18;;;;;;;;;;;;;;;;;;5153244;27;20386;-67
2023/05/03 11:34:35;;;;;;;;;;;;;;;;;;5152728;27;20427;-67
2023/05/03 11:37:01;;;;;;;;;;;;;;;;;;5152992;27;19958;-68
2023/05/03 11:40:45;;;;;;;;;;;;;;;;;;4969313;28;19918;-67
2023/05/03 11:44:51;;;;;;;;;;;;;;;;;;5091304;27;19917;-68
2023/05/03 11:47:17;;;;;;;;;;;;;;;;;;5090932;28;19912;-69
2023/05/03 11:49:43;;;;;;;;;;;;;;;;;;5091269;28;20317;-70
2023/05/03 11:52:36;;;;;;;;;;;;;;;;;;5090251;27;19919;-68
2023/05/03 11:55:03;;;;;;;;;;;;;;;;;;5090824;28;19958;-68
2023/05/03 11:57:29;;;;;;;;;;;;;;;;;;5091335;28;19908;-68
2023/05/03 11:59:55;;;;;;;;;;;;;;;;;;5091293;28;20006;-68
2023/05/03 12:03:51;;;;;;;;;;;;;;;;;;5092064;27;19917;-68
2023/05/03 12:07:25;;;;;;;;;;;;;;;;;;5092276;28;19922;-68
2023/05/03 12:12:24;;;;;;;;;;;;;;;;;;5152994;27;20006;-67
2023/05/03 12:14:50;;;;;;;;;;;;;;;;;;5153095;27;20318;-70
2023/05/03 12:17:16;;;;;;;;;;;;;;;;;;5152464;27;19914;-68
2023/05/03 12:19:42;;;;;;;;;;;;;;;;;;5152856;27;19907;-70
2023/05/03 12:24:40;;;;;;;;;;;;;;;;;;5091357;28;19916;-69
2023/05/03 12:27:06;;;;;;;;;;;;;;;;;;5091261;28;19913;-68
2023/05/03 12:29:32;;;;;;;;;;;;;;;;;;5091543;28;19912;-69
2023/05/03 12:32:01;;;;;;;;;;;;;;;;;;5091295;28;19962;-69
2023/05/03 12:34:27;;;;;;;;;;;;;;;;;;5091102;28;19961;-69
2023/05/03 12:36:53;;;;;;;;;;;;;;;;;;5090726;28;19913;-69
2023/05/03 12:39:19;;;;;;;;;;;;;;;;;;5089810;28;19913;-69
2023/05/03 12:42:42;;;;;;;;;;;;;;;;;;5091339;27;19923;-68
2023/05/03 12:45:08;;;;;;;;;;;;;;;;;;5090783;28;19912;-69
2023/05/03 12:47:35;;;;;;;;;;;;;;;;;;5091228;28;20409;-70
2023/05/03 12:50:02;;;;;;;;;;;;;;;;;;5089902;28;20280;-70
2023/05/03 12:52:29;;;;;;;;;;;;;;;;;;5090709;28;19908;-70
2023/05/03 12:54:55;;;;;;;;;;;;;;;;;;5091381;28;20356;-70
2023/05/03 12:57:21;;;;;;;;;;;;;;;;;;5090868;28;19915;-69
2023/05/03 12:59:51;;;;;;;;;;;;;;;;;;5090869;28;19908;-70
2023/05/03 13:02:17;;;;;;;;;;;;;;;;;;5090839;28;19916;-70
2023/05/03 13:04:43;;;;;;;;;;;;;;;;;;5090247;28;19912;-69
2023/05/03 13:07:11;;;;;;;;;;;;;;;;;;5090878;28;19916;-68
2023/05/03 13:09:37;;;;;;;;;;;;;;;;;;5090758;28;19916;-69
2023/05/03 13:12:03;;;;;;;;;;;;;;;;;;5090389;28;19916;-69
2023/05/03 13:14:29;;;;;;;;;;;;;;;;;;5091118;28;19912;-67
2023/05/03 13:16:55;;;;;;;;;;;;;;;;;;5090832;28;19958;-67
2023/05/03 13:19:21;;;;;;;;;;;;;;;;;;5090395;28;19940;-69
2023/05/03 13:21:48;;;;;;;;;;;;;;;;;;5090634;28;20015;-69
2023/05/03 13:24:14;;;;;;;;;;;;;;;;;;5090657;28;19947;-69
2023/05/03 13:26:40;;;;;;;;;;;;;;;;;;5090147;28;19908;-69
2023/05/03 13:31:41;;;;;;;;;;;;;;;;;;5092131;27;20281;-70
2023/05/03 13:34:07;;;;;;;;;;;;;;;;;;5090926;28;19958;-68
2023/05/03 13:36:33;;;;;;;;;;;;;;;;;;5091263;28;20369;-68
2023/05/03 13:39:00;;;;;;;;;;;;;;;;;;5091508;28;20384;-69
2023/05/03 13:41:26;;;;;;;;;;;;;;;;;;5090791;28;20003;-68
2023/05/03 13:45:36;;;;;;;;;;;;;;;;;;5153044;27;20002;-69
2023/05/03 13:48:02;;;;;;;;;;;;;;;;;;5152381;27;20014;-68
2023/05/03 13:50:28;;;;;;;;;;;;;;;;;;5152808;27;19914;-68
2023/05/03 13:52:53;;;;;;;;;;;;;;;;;;5153609;27;19907;-69
2023/05/03 13:55:20;;;;;;;;;;;;;;;;;;5152232;27;19914;-68
2023/05/03 13:57:46;;;;;;;;;;;;;;;;;;5152694;27;19908;-68
2023/05/03 14:00:12;;;;;;;;;;;;;;;;;;5152572;27;19962;-68
2023/05/03 14:02:52;;;;;;;;;;;;;;;;;;5050706;28;19919;-68
2023/05/03 14:05:21;;;;;;;;;;;;;;;;;;5051346;28;19913;-68
2023/05/03 14:09:02;;;;;;;;;;;;;;;;;;5091259;28;19923;-68
2023/05/03 14:11:28;;;;;;;;;;;;;;;;;;5091593;28;19912;-68
2023/05/03 14:17:28;;;;;;;;;;;;;;;;;;5091938;27;20402;-69
2023/05/03 14:20:22;;;;;;;;;;;;;;;;;;5092086;27;19916;-68
2023/05/03 14:23:38;;;;;;;;;;;;;;;;;;5173539;27;19922;-68
2023/05/03 14:26:04;;;;;;;;;;;;;;;;;;5173755;27;20392;-68
2023/05/03 14:28:48;;;;;;;;;;;;;;;;;;5091586;27;19916;-68
2023/05/03 14:31:35;;;;;;;;;;;;;;;;;;5153674;27;19916;-68
2023/05/03 14:34:01;;;;;;;;;;;;;;;;;;5152888;27;20345;-67
2023/05/03 14:36:33;;;;;;;;;;;;;;;;;;5152361;27;20001;-67
2023/05/03 14:40:59;;;;;;;;;;;;;;;;;;5092168;27;19917;-68
2023/05/03 14:43:25;;;;;;;;;;;;;;;;;;5090933;28;19912;-68
2023/05/03 14:45:51;;;;;;;;;;;;;;;;;;5091593;28;20276;-70
2023/05/03 14:48:36;;;;;;;;;;;;;;;;;;5091602;27;19935;-69
2023/05/03 14:51:18;;;;;;;;;;;;;;;;;;5050657;28;19923;-67
2023/05/03 14:53:44;;;;;;;;;;;;;;;;;;5051454;28;20289;-69
2023/05/03 14:56:10;;;;;;;;;;;;;;;;;;5050946;28;19915;-69
2023/05/03 14:58:36;;;;;;;;;;;;;;;;;;5050689;28;19909;-67
2023/05/03 15:04:09;;;;;;;;;;;;;;;;;;5091082;27;19916;-68
2023/05/03 15:07:18;;;;;;;;;;;;;;;;;;5111674;27;19916;-67
2023/05/03 15:11:39;;;;;;;;;;;;;;;;;;5091125;27;19916;-68
2023/05/03 15:14:05;;;;;;;;;;;;;;;;;;5091559;28;19922;-68
2023/05/03 15:16:30;;;;;;;;;;;;;;;;;;5091514;28;19909;-68
2023/05/03 15:18:56;;;;;;;;;;;;;;;;;;5089508;28;19909;-68
2023/05/03 15:21:23;;;;;;;;;;;;;;;;;;5091156;28;19955;-68
2023/05/03 15:25:52;;;;;;;;;;;;;;;;;;5090961;27;19916;-68
2023/05/03 15:28:18;;;;;;;;;;;;;;;;;;5091274;28;20003;-69
2023/05/03 15:37:27;;;;;;;;;;;;;;;;;;5091734;27;19916;-67
2023/05/03 15:39:53;;;;;;;;;;;;;;;;;;5090875;28;19947;-69
2023/05/03 15:42:53;;;;;;;;;;;;;;;;;;5153173;27;20439;-70
2023/05/03 15:45:21;;;;;;;;;;;;;;;;;;5151544;27;19946;-68
2023/05/03 15:47:47;;;;;;;;;;;;;;;;;;5152647;27;19968;-69
2023/05/03 15:51:49;;;;;;;;;;;;;;;;;;5091600;27;19912;-69
2023/05/03 15:57:36;;;;;;;;;;;;;;;;;;5091400;27;19917;-68
2023/05/03 16:00:26;;;;;;;;;;;;;;;;;;5090988;28;20287;-69
2023/05/03 16:02:52;;;;;;;;;;;;;;;;;;5089928;28;20373;-68
2023/05/03 16:05:18;;;;;;;;;;;;;;;;;;5091240;28;19908;-68
2023/05/03 16:07:45;;;;;;;;;;;;;;;;;;5088493;28;20391;-68
2023/05/03 16:12:03;;;;;;;;;;;;;;;;;;5077731;27;2110137;-69
2023/05/03 16:14:29;;;;;;;;;;;;;;;;;;5152365;27;19919;-68
2023/05/03 16:17:48;;;;;;;;;;;;;;;;;;5091111;27;19912;-67
2023/05/03 16:24:53;;;;;;;;;;;;;;;;;;5091381;27;19916;-67
2023/05/03 16:29:26;;;;;;;;;;;;;;;;;;5090924;27;19923;-69
2023/05/03 16:31:52;;;;;;;;;;;;;;;;;;5091330;28;19912;-69
2023/05/03 16:34:18;;;;;;;;;;;;;;;;;;5091154;28;19954;-66
2023/05/03 16:36:44;;;;;;;;;;;;;;;;;;5089924;28;19908;-67
2023/05/03 16:39:10;;;;;;;;;;;;;;;;;;5089725;28;20269;-67
2023/05/03 16:41:36;;;;;;;;;;;;;;;;;;5091381;28;19912;-65
2023/05/03 16:44:03;;;;;;;;;;;;;;;;;;5090760;28;19962;-67
2023/05/03 16:46:48;;;;;;;;;;;;;;;;;;5092133;27;20260;-65
2023/05/03 16:51:26;;;;;;;;;;;;;;;;;;5089635;28;19922;-68
2023/05/03 16:53:52;;;;;;;;;;;;;;;;;;5091121;28;20280;-69
2023/05/03 16:56:18;;;;;;;;;;;;;;;;;;5091231;28;20004;-69
2023/05/03 16:58:44;;;;;;;;;;;;;;;;;;5090785;28;19920;-68
2023/05/03 17:01:10;;;;;;;;;;;;;;;;;;5091184;28;20415;-68
2023/05/03 17:03:36;;;;;;;;;;;;;;;;;;5090682;28;20337;-68
2023/05/03 17:07:21;;;;;;;;;;;;;;;;;;5091540;27;19916;-67
2023/05/03 17:09:47;;;;;;;;;;;;;;;;;;5091357;28;20373;-68
2023/05/03 17:13:55;;;;;;;;;;;;;;;;;;5091800;27;20278;-68
2023/05/03 17:16:21;;;;;;;;;;;;;;;;;;5091594;28;19982;-69
2023/05/03 17:19:07;;;;;;;;;;;;;;;;;;5091142;27;19918;-68
2023/05/03 17:25:56;;;;;;;;;;;;;;;;;;5091281;27;20287;-68
2023/05/03 17:28:22;;;;;;;;;;;;;;;;;;5091425;28;20007;-69
2023/05/03 17:30:48;;;;;;;;;;;;;;;;;;5091253;28;19912;-67
2023/05/03 17:33:14;;;;;;;;;;;;;;;;;;5090883;28;19912;-67
2023/05/03 17:35:40;;;;;;;;;;;;;;;;;;5089879;28;19962;-67
2023/05/03 17:38:06;;;;;;;;;;;;;;;;;;5091148;28;19909;-69
2023/05/03 17:40:32;;;;;;;;;;;;;;;;;;5090671;28;20024;-67
2023/05/03 17:42:58;;;;;;;;;;;;;;;;;;5091276;28;20284;-67
2023/05/03 17:46:54;;;;;;;;;;;;;;;;;;5111415;27;19974;-68
2023/05/03 17:49:20;;;;;;;;;;;;;;;;;;5111682;28;20398;-68
2023/05/03 17:53:29;;;;;;;;;;;;;;;;;;5091422;27;19912;-68
2023/05/03 17:55:55;;;;;;;;;;;;;;;;;;5091265;28;20015;-69
2023/05/03 17:58:21;;;;;;;;;;;;;;;;;;5091090;28;20336;-68
2023/05/03 18:01:28;;;;;;;;;;;;;;;;;;5152355;27;20383;-68
2023/05/03 18:03:54;;;;;;;;;;;;;;;;;;5152795;27;19911;-68
2023/05/03 18:06:41;;;;;;;;;;;;;;;;;;5090786;27;19916;-68
2023/05/03 18:11:40;;;;;;;;;;;;;;;;;;5084208;27;19917;-68
2023/05/03 18:14:06;;;;;;;;;;;;;;;;;;5068646;28;19913;-67
2023/05/03 18:19:13;;;;;;;;;;;;;;;;;;5123609;27;19919;-69
2023/05/03 18:22:17;;;;;;;;;;;;;;;;;;5122118;27;19926;-68
2023/05/03 18:24:44;;;;;;;;;;;;;;;;;;5115719;28;19912;-68
2023/05/03 18:27:14;;;;;;;;;;;;;;;;;;5126129;28;20435;-68
2023/05/03 18:29:40;;;;;;;;;;;;;;;;;;5130124;28;19908;-69
2023/05/03 18:32:06;;;;;;;;;;;;;;;;;;5109600;28;19912;-68
2023/05/03 18:34:36;;;;;;;;;;;;;;;;;;5125712;28;19912;-68
2023/05/03 18:37:02;;;;;;;;;;;;;;;;;;5123364;28;19915;-68
2023/05/03 18:39:28;;;;;;;;;;;;;;;;;;5131280;28;19907;-68
2023/05/03 18:41:54;;;;;;;;;;;;;;;;;;5126342;28;19965;-68
2023/05/03 18:44:22;;;;;;;;;;;;;;;;;;5129715;28;20427;-68
2023/05/03 18:46:49;;;;;;;;;;;;;;;;;;5114944;28;20316;-67
2023/05/03 18:49:15;;;;;;;;;;;;;;;;;;5115299;28;19912;-68
2023/05/03 18:51:41;;;;;;;;;;;;;;;;;;5117457;28;19919;-68
2023/05/03 18:54:07;;;;;;;;;;;;;;;;;;5120779;28;19912;-67
2023/05/03 18:56:32;;;;;;;;;;;;;;;;;;5117638;28;19912;-69
2023/05/03 18:58:58;;;;;;;;;;;;;;;;;;5115899;28;19998;-69
2023/05/03 19:01:25;;;;;;;;;;;;;;;;;;5128791;28;19920;-69
2023/05/03 19:03:51;;;;;;;;;;;;;;;;;;5129325;28;20345;-67
2023/05/03 19:06:17;;;;;;;;;;;;;;;;;;5116359;28;19916;-69
2023/05/03 19:08:43;;;;;;;;;;;;;;;;;;5095801;28;19962;-69
2023/05/03 19:11:09;;;;;;;;;;;;;;;;;;5128350;28;20442;-69
2023/05/03 19:13:35;;;;;;;;;;;;;;;;;;5103985;28;19969;-67
2023/05/03 19:16:01;;;;;;;;;;;;;;;;;;5109682;28;19966;-68
2023/05/03 19:18:27;;;;;;;;;;;;;;;;;;5121869;28;19916;-68
2023/05/03 19:20:54;;;;;;;;;;;;;;;;;;5100719;28;20019;-68
2023/05/03 19:23:20;;;;;;;;;;;;;;;;;;5120672;28;19920;-68
2023/05/03 19:25:45;;;;;;;;;;;;;;;;;;5125257;28;19912;-68
2023/05/03 19:28:11;;;;;;;;;;;;;;;;;;5090204;28;19912;-68
2023/05/03 19:30:40;;;;;;;;;;;;;;;;;;5123485;28;19916;-68
2023/05/03 19:33:06;;;;;;;;;;;;;;;;;;5117365;28;19915;-69
2023/05/03 19:35:31;;;;;;;;;;;;;;;;;;5098708;28;19908;-68
2023/05/03 19:37:58;;;;;;;;;;;;;;;;;;5098110;28;19919;-67
2023/05/03 19:40:24;;;;;;;;;;;;;;;;;;5115710;28;19919;-69
2023/05/03 19:42:51;;;;;;;;;;;;;;;;;;5116758;28;19912;-69
2023/05/03 19:45:17;;;;;;;;;;;;;;;;;;5115348;28;19964;-69